createdAt,value
2018-02-18T00:00:01.978Z,102142
2018-02-18T00:02:28.106Z,102144
2018-02-18T00:04:54.234Z,102142
2018-02-18T00:07:20.391Z,102139
2018-02-18T00:09:46.526Z,102136
2018-02-18T00:12:12.682Z,102141
2018-02-18T00:14:39.561Z,102147
2018-02-18T00:17:05.711Z,102136
2018-02-18T00:19:31.849Z,102141
2018-02-18T00:21:57.980Z,102144
2018-02-18T00:24:24.137Z,102150
2018-02-18T00:26:50.726Z,102152
2018-02-18T00:29:16.870Z,102144
2018-02-18T00:31:43.032Z,102155
2018-02-18T00:34:09.168Z,102152
2018-02-18T00:36:35.324Z,102150
2018-02-18T00:39:01.481Z,102144
2018-02-18T00:41:27.613Z,102143
2018-02-18T00:43:53.746Z,102107
2018-02-18T00:46:20.645Z,102149
2018-02-18T00:48:46.780Z,102144
2018-02-18T00:51:12.933Z,102145
2018-02-18T00:53:39.097Z,102146
2018-02-18T00:56:05.257Z,102148
2018-02-18T00:58:31.397Z,102141
2018-02-18T01:00:57.557Z,102135
2018-02-18T01:03:23.693Z,102135
2018-02-18T01:05:49.829Z,102141
2018-02-18T01:08:16.421Z,102147
2018-02-18T01:10:42.558Z,102143
2018-02-18T01:13:08.690Z,102141
2018-02-18T01:15:34.832Z,102135
2018-02-18T01:18:00.966Z,102128
2018-02-18T01:20:27.118Z,102125
2018-02-18T01:22:53.261Z,102131
2018-02-18T01:25:19.393Z,102135
2018-02-18T01:27:45.873Z,102145
2018-02-18T01:30:12.005Z,102141
2018-02-18T01:32:38.189Z,102138
2018-02-18T01:35:04.344Z,102138
2018-02-18T01:37:30.491Z,102140
2018-02-18T01:39:56.629Z,102142
2018-02-18T01:42:22.762Z,102150
2018-02-18T01:44:48.906Z,102143
2018-02-18T01:47:15.056Z,102140
2018-02-18T01:49:41.190Z,102135
2018-02-18T01:52:07.321Z,102138
2018-02-18T01:54:33.464Z,102143
2018-02-18T01:56:59.597Z,102144
2018-02-18T01:59:25.859Z,102138
2018-02-18T02:01:52.009Z,102135
2018-02-18T02:04:18.134Z,102136
2018-02-18T02:06:44.257Z,102138
2018-02-18T02:09:10.409Z,102136
2018-02-18T02:11:36.565Z,102147
2018-02-18T02:14:02.693Z,102134
2018-02-18T02:16:28.827Z,102142
2018-02-18T02:18:54.974Z,102130
2018-02-18T02:21:21.118Z,102133
2018-02-18T02:23:47.257Z,102134
2018-02-18T02:26:13.400Z,102135
2018-02-18T02:28:40.298Z,102144
2018-02-18T02:31:06.440Z,102135
2018-02-18T02:33:32.565Z,102130
2018-02-18T02:35:58.725Z,102129
2018-02-18T02:38:24.881Z,102140
2018-02-18T02:40:51.014Z,102138
2018-02-18T02:43:17.144Z,102138
2018-02-18T02:45:43.293Z,102136
2018-02-18T02:48:09.421Z,102139
2018-02-18T02:50:35.564Z,102139
2018-02-18T02:53:01.754Z,102140
2018-02-18T02:55:28.101Z,102140
2018-02-18T02:57:54.249Z,102138
2018-02-18T03:00:20.389Z,102139
2018-02-18T03:02:47.260Z,102135
2018-02-18T03:05:13.381Z,102135
2018-02-18T03:07:39.531Z,102121
2018-02-18T03:10:05.669Z,102132
2018-02-18T03:12:31.798Z,102126
2018-02-18T03:14:57.952Z,102130
2018-02-18T03:17:24.088Z,102117
2018-02-18T03:19:50.226Z,102117
2018-02-18T03:22:16.372Z,102116
2018-02-18T03:24:42.833Z,102128
2018-02-18T03:27:09.266Z,102158
2018-02-18T03:29:35.371Z,102125
2018-02-18T03:32:01.509Z,102126
2018-02-18T03:34:27.644Z,102129
2018-02-18T03:36:53.777Z,102119
2018-02-18T03:39:19.922Z,102112
2018-02-18T03:41:46.321Z,102116
2018-02-18T03:44:12.453Z,102112
2018-02-18T03:46:38.589Z,102114
2018-02-18T03:49:04.763Z,102117
2018-02-18T03:51:31.647Z,102122
2018-02-18T03:53:57.776Z,102113
2018-02-18T03:56:23.928Z,102116
2018-02-18T03:58:50.304Z,102126
2018-02-18T04:01:16.443Z,102120
2018-02-18T04:03:42.565Z,102132
2018-02-18T04:06:08.685Z,102134
2018-02-18T04:08:34.809Z,102129
2018-02-18T04:11:00.960Z,102137
2018-02-18T04:13:27.093Z,102140
2018-02-18T04:15:53.217Z,102140
2018-02-18T04:18:19.361Z,102148
2018-02-18T04:20:45.483Z,102111
2018-02-18T04:23:11.625Z,102143
2018-02-18T04:25:37.781Z,102147
2018-02-18T04:28:03.921Z,102145
2018-02-18T04:30:30.286Z,102150
2018-02-18T04:32:56.413Z,102148
2018-02-18T04:35:22.551Z,102150
2018-02-18T04:37:48.689Z,102145
2018-02-18T04:40:14.833Z,102151
2018-02-18T04:42:40.977Z,102141
2018-02-18T04:45:07.861Z,102141
2018-02-18T04:47:33.988Z,102142
2018-02-18T04:50:00.113Z,102149
2018-02-18T04:52:26.638Z,102160
2018-02-18T04:54:52.766Z,102151
2018-02-18T04:57:18.893Z,102150
2018-02-18T04:59:45.069Z,102160
2018-02-18T05:02:11.202Z,102156
2018-02-18T05:04:37.329Z,102150
2018-02-18T05:07:04.217Z,102155
2018-02-18T05:09:30.358Z,102156
2018-02-18T05:11:57.454Z,102159
2018-02-18T05:14:23.585Z,102165
2018-02-18T05:16:49.717Z,102156
2018-02-18T05:19:15.855Z,102158
2018-02-18T05:21:41.982Z,102153
2018-02-18T05:24:09.261Z,102166
2018-02-18T05:26:35.395Z,102166
2018-02-18T05:29:01.533Z,102165
2018-02-18T05:31:27.668Z,102164
2018-02-18T05:33:53.798Z,102166
2018-02-18T05:36:19.956Z,102170
2018-02-18T05:38:46.082Z,102170
2018-02-18T05:41:12.264Z,102171
2018-02-18T05:43:39.153Z,102175
2018-02-18T05:46:05.281Z,102180
2018-02-18T05:48:31.438Z,102183
2018-02-18T05:50:57.569Z,102178
2018-02-18T05:53:23.709Z,102176
2018-02-18T05:55:49.859Z,102176
2018-02-18T05:58:16.007Z,102178
2018-02-18T06:00:42.173Z,102171
2018-02-18T06:03:08.297Z,102188
2018-02-18T06:05:34.436Z,102184
2018-02-18T06:08:00.575Z,102176
2018-02-18T06:10:26.709Z,102181
2018-02-18T06:12:52.901Z,102182
2018-02-18T06:15:19.017Z,102190
2018-02-18T06:17:45.153Z,102189
2018-02-18T06:20:11.293Z,102190
2018-02-18T06:22:37.911Z,102201
2018-02-18T06:25:04.077Z,102189
2018-02-18T06:27:30.194Z,102197
2018-02-18T06:29:57.801Z,102186
2018-02-18T06:32:23.934Z,102190
2018-02-18T06:34:50.057Z,102184
2018-02-18T06:37:16.216Z,102192
2018-02-18T06:39:42.349Z,102182
2018-02-18T06:42:08.477Z,102184
2018-02-18T06:44:34.604Z,102178
2018-02-18T06:47:00.732Z,102176
2018-02-18T06:49:26.883Z,102170
2018-02-18T06:51:53.018Z,102178
2018-02-18T06:54:19.886Z,102185
2018-02-18T06:56:46.333Z,102181
2018-02-18T06:59:12.457Z,102180
2018-02-18T07:01:38.602Z,102184
2018-02-18T07:04:04.753Z,102180
2018-02-18T07:06:30.918Z,102188
2018-02-18T07:08:57.065Z,102181
2018-02-18T07:11:23.209Z,102187
2018-02-18T07:13:49.356Z,102178
2018-02-18T07:16:15.486Z,102184
2018-02-18T07:18:41.618Z,102178
2018-02-18T07:21:07.750Z,102186
2018-02-18T07:23:33.877Z,102190
2018-02-18T07:26:00.761Z,102196
2018-02-18T07:28:26.899Z,102186
2018-02-18T07:30:53.153Z,102190
2018-02-18T07:33:19.305Z,102194
2018-02-18T07:35:46.193Z,102198
2018-02-18T07:38:12.325Z,102189
2018-02-18T07:40:38.457Z,102198
2018-02-18T07:43:04.594Z,102192
2018-02-18T07:45:30.732Z,102196
2018-02-18T07:47:56.862Z,102182
2018-02-18T07:50:23.009Z,102187
2018-02-18T07:52:50.215Z,102186
2018-02-18T07:55:16.337Z,102180
2018-02-18T07:57:42.477Z,102181
2018-02-18T08:00:08.614Z,102189
2018-02-18T08:02:34.757Z,102187
2018-02-18T08:05:00.889Z,102193
2018-02-18T08:07:27.765Z,102190
2018-02-18T08:09:53.898Z,102184
2018-02-18T08:12:20.033Z,102192
2018-02-18T08:14:46.170Z,102196
2018-02-18T08:17:12.297Z,102195
2018-02-18T08:19:38.529Z,102194
2018-02-18T08:22:04.701Z,102205
2018-02-18T08:24:30.858Z,102201
2018-02-18T08:26:57.016Z,102207
2018-02-18T08:29:23.189Z,102202
2018-02-18T08:31:50.072Z,102196
2018-02-18T08:34:16.196Z,102202
2018-02-18T08:36:42.349Z,102205
2018-02-18T08:39:08.513Z,102201
2018-02-18T08:41:34.653Z,102212
2018-02-18T08:44:00.786Z,102215
2018-02-18T08:46:26.946Z,102213
2018-02-18T08:48:53.094Z,102211
2018-02-18T08:51:20.010Z,102198
2018-02-18T08:53:46.450Z,102218
2018-02-18T08:56:12.606Z,102213
2018-02-18T08:58:39.505Z,102210
2018-02-18T09:01:05.673Z,102209
2018-02-18T09:03:31.817Z,102212
2018-02-18T09:05:57.957Z,102203
2018-02-18T09:08:24.094Z,102211
2018-02-18T09:10:50.242Z,102203
2018-02-18T09:13:16.409Z,102204
2018-02-18T09:15:42.550Z,102203
2018-02-18T09:18:11.486Z,102199
2018-02-18T09:20:37.731Z,102207
2018-02-18T09:23:04.593Z,102212
2018-02-18T09:25:31.114Z,102222
2018-02-18T09:27:57.253Z,102220
2018-02-18T09:30:23.381Z,102215
2018-02-18T09:32:49.546Z,102222
2018-02-18T09:35:15.674Z,102219
2018-02-18T09:37:41.822Z,102211
2018-02-18T09:40:07.973Z,102209
2018-02-18T09:42:34.109Z,102217
2018-02-18T09:45:00.293Z,102225
2018-02-18T09:47:26.502Z,102221
2018-02-18T09:49:52.675Z,102223
2018-02-18T09:52:18.821Z,102219
2018-02-18T09:54:44.964Z,102223
2018-02-18T09:57:12.181Z,102224
2018-02-18T09:59:38.337Z,102223
2018-02-18T10:02:05.210Z,102233
2018-02-18T10:04:31.341Z,102230
2018-02-18T10:06:57.477Z,102233
2018-02-18T10:09:23.626Z,102233
2018-02-18T10:11:49.776Z,102235
2018-02-18T10:14:15.904Z,102232
2018-02-18T10:16:42.061Z,102223
2018-02-18T10:19:08.194Z,102230
2018-02-18T10:21:34.324Z,102231
2018-02-18T10:24:00.484Z,102226
2018-02-18T10:26:26.625Z,102209
2018-02-18T10:28:52.753Z,102221
2018-02-18T10:31:18.910Z,102222
2018-02-18T10:33:45.049Z,102220
2018-02-18T10:36:11.216Z,102218
2018-02-18T10:38:37.357Z,102228
2018-02-18T10:41:03.505Z,102229
2018-02-18T10:43:30.392Z,102224
2018-02-18T10:45:56.517Z,102240
2018-02-18T10:48:22.664Z,102242
2018-02-18T10:50:49.077Z,102239
2018-02-18T10:53:15.206Z,102239
2018-02-18T10:55:41.346Z,102229
2018-02-18T10:58:07.473Z,102228
2018-02-18T11:00:33.602Z,102233
2018-02-18T11:02:59.738Z,102224
2018-02-18T11:05:27.383Z,102221
2018-02-18T11:07:53.546Z,102216
2018-02-18T11:10:19.686Z,102217
2018-02-18T11:12:46.576Z,102219
2018-02-18T11:15:12.710Z,102221
2018-02-18T11:17:38.873Z,102206
2018-02-18T11:20:05.014Z,102215
2018-02-18T11:22:31.613Z,102214
2018-02-18T11:24:57.768Z,102208
2018-02-18T11:27:24.650Z,102195
2018-02-18T11:29:50.785Z,102191
2018-02-18T11:32:16.930Z,102195
2018-02-18T11:34:43.077Z,102189
2018-02-18T11:37:09.194Z,102184
2018-02-18T11:39:35.386Z,102182
2018-02-18T11:42:01.547Z,102176
2018-02-18T11:44:27.697Z,102177
2018-02-18T11:46:54.613Z,102176
2018-02-18T11:49:20.737Z,102173
2018-02-18T11:51:47.164Z,102168
2018-02-18T11:54:13.321Z,102170
2018-02-18T11:56:39.461Z,102163
2018-02-18T11:59:06.335Z,102160
2018-02-18T12:01:32.494Z,102158
2018-02-18T12:03:58.673Z,102155
2018-02-18T12:06:24.835Z,102155
2018-02-18T12:08:50.960Z,102158
2018-02-18T12:11:17.126Z,102152
2018-02-18T12:13:44.050Z,102147
2018-02-18T12:16:10.193Z,102145
2018-02-18T12:18:36.341Z,102132
2018-02-18T12:21:02.502Z,102138
2018-02-18T12:23:29.150Z,102136
2018-02-18T12:25:55.381Z,102132
2018-02-18T12:28:21.575Z,102140
2018-02-18T12:30:47.713Z,102127
2018-02-18T12:33:13.857Z,102131
2018-02-18T12:35:40.029Z,102126
2018-02-18T12:38:06.198Z,102134
2018-02-18T12:40:32.329Z,102127
2018-02-18T12:42:58.471Z,102130
2018-02-18T12:45:24.626Z,102115
2018-02-18T12:47:50.878Z,102119
2018-02-18T12:50:17.042Z,102106
2018-02-18T12:52:43.477Z,102125
2018-02-18T12:55:09.646Z,102118
2018-02-18T12:57:35.831Z,102119
2018-02-18T13:00:02.670Z,102106
2018-02-18T13:02:28.875Z,102100
2018-02-18T13:04:55.022Z,102096
2018-02-18T13:07:21.185Z,102096
2018-02-18T13:09:47.313Z,102100
2018-02-18T13:12:13.625Z,102085
2018-02-18T13:14:40.058Z,102094
2018-02-18T13:17:06.444Z,102094
2018-02-18T13:19:32.784Z,102100
2018-02-18T13:21:59.199Z,102086
2018-02-18T13:24:25.349Z,102090
2018-02-18T13:26:51.538Z,102082
2018-02-18T13:29:19.209Z,102085
2018-02-18T13:31:46.086Z,102083
2018-02-18T13:34:12.217Z,102078
2018-02-18T13:36:38.341Z,102082
2018-02-18T13:39:04.514Z,102081
2018-02-18T13:41:30.668Z,102078
2018-02-18T13:43:56.799Z,102066
2018-02-18T13:46:22.950Z,102077
2018-02-18T13:48:49.081Z,102078
2018-02-18T13:51:15.640Z,102068
2018-02-18T13:53:41.856Z,102062
2018-02-18T13:56:07.949Z,102068
2018-02-18T13:58:34.089Z,102067
2018-02-18T14:01:00.221Z,102071
2018-02-18T14:03:26.346Z,102066
2018-02-18T14:05:52.506Z,102067
2018-02-18T14:08:18.741Z,102065
2018-02-18T14:10:44.873Z,102060
2018-02-18T14:13:11.021Z,102060
2018-02-18T14:15:37.916Z,102062
2018-02-18T14:18:04.062Z,102058
2018-02-18T14:20:30.214Z,102061
2018-02-18T14:22:56.798Z,102059
2018-02-18T14:25:22.934Z,102060
2018-02-18T14:27:49.075Z,102066
2018-02-18T14:30:15.227Z,102055
2018-02-18T14:32:42.094Z,102056
2018-02-18T14:35:08.274Z,102053
2018-02-18T14:37:34.410Z,102056
2018-02-18T14:40:00.533Z,102057
2018-02-18T14:42:45.157Z,102053
2018-02-18T14:45:30.006Z,102056
2018-02-18T14:48:14.586Z,102054
2018-02-18T14:50:59.653Z,102057
2018-02-18T14:53:44.422Z,102065
2018-02-18T14:56:29.013Z,102048
2018-02-18T14:58:55.887Z,102035
2018-02-18T15:01:22.034Z,102034
2018-02-18T15:03:48.197Z,102032
2018-02-18T15:06:14.669Z,102030
2018-02-18T15:08:40.816Z,102029
2018-02-18T15:11:06.994Z,102040
2018-02-18T15:13:33.185Z,102034
2018-02-18T15:15:59.353Z,102030
2018-02-18T15:18:25.481Z,102020
2018-02-18T15:20:52.362Z,102023
2018-02-18T15:23:19.483Z,102029
2018-02-18T15:25:45.619Z,102025
2018-02-18T15:28:11.741Z,102031
2018-02-18T15:30:38.617Z,102028
2018-02-18T15:33:04.841Z,102023
2018-02-18T15:35:30.999Z,102015
2018-02-18T15:37:57.224Z,102020
2018-02-18T15:40:23.646Z,102009
2018-02-18T15:42:49.769Z,102010
2018-02-18T15:45:15.953Z,102011
2018-02-18T15:47:42.823Z,102011
2018-02-18T15:50:08.957Z,102011
2018-02-18T15:52:35.099Z,102016
2018-02-18T15:55:01.244Z,102011
2018-02-18T15:57:27.402Z,102012
2018-02-18T15:59:53.977Z,102011
2018-02-18T16:02:20.101Z,102009
2018-02-18T16:04:46.229Z,101998
2018-02-18T16:07:12.361Z,101997
2018-02-18T16:09:38.533Z,101995
2018-02-18T16:12:04.671Z,102004
2018-02-18T16:14:30.813Z,101993
2018-02-18T16:16:56.965Z,101993
2018-02-18T16:19:23.107Z,102002
2018-02-18T16:21:49.225Z,101997
2018-02-18T16:24:15.570Z,101995
2018-02-18T16:26:41.702Z,101994
2018-02-18T16:29:07.833Z,101993
2018-02-18T16:31:33.990Z,101983
2018-02-18T16:34:00.862Z,101988
2018-02-18T16:36:27.640Z,101997
2018-02-18T16:38:53.770Z,101991
2018-02-18T16:41:19.911Z,101991
2018-02-18T16:43:46.045Z,101988
2018-02-18T16:46:12.937Z,101986
2018-02-18T16:48:39.093Z,101984
2018-02-18T16:51:06.968Z,101990
2018-02-18T16:53:33.101Z,101990
2018-02-18T16:55:59.245Z,101982
2018-02-18T16:58:26.180Z,101990
2018-02-18T17:00:53.054Z,101999
2018-02-18T17:03:19.217Z,101989
2018-02-18T17:05:45.366Z,101992
2018-02-18T17:08:12.237Z,101990
2018-02-18T17:10:38.388Z,101980
2018-02-18T17:13:04.516Z,101977
2018-02-18T17:15:30.671Z,101971
2018-02-18T17:17:56.818Z,101970
2018-02-18T17:20:22.978Z,101963
2018-02-18T17:22:49.129Z,101968
2018-02-18T17:25:22.283Z,101955
2018-02-18T17:27:49.157Z,101956
2018-02-18T17:30:15.286Z,101950
2018-02-18T17:32:42.173Z,101953
2018-02-18T17:35:08.306Z,101946
2018-02-18T17:37:34.456Z,101954
2018-02-18T17:40:00.589Z,101954
2018-02-18T17:42:26.721Z,101952
2018-02-18T17:44:52.873Z,101961
2018-02-18T17:47:19.209Z,101960
2018-02-18T17:49:45.353Z,101957
2018-02-18T17:52:11.484Z,101953
2018-02-18T17:54:37.609Z,101950
2018-02-18T17:57:03.785Z,101958
2018-02-18T17:59:29.934Z,101954
2018-02-18T18:01:56.068Z,101957
2018-02-18T18:04:22.226Z,101959
2018-02-18T18:06:49.129Z,101946
2018-02-18T18:09:15.270Z,101946
2018-02-18T18:11:41.421Z,101939
2018-02-18T18:14:07.579Z,101941
2018-02-18T18:16:33.719Z,101930
2018-02-18T18:18:59.868Z,101932
2018-02-18T18:21:33.770Z,101930
2018-02-18T18:23:59.901Z,101928
2018-02-18T18:26:26.029Z,101927
2018-02-18T18:28:52.189Z,101927
2018-02-18T18:31:18.317Z,101924
2018-02-18T18:33:45.192Z,101928
2018-02-18T18:36:11.334Z,101921
2018-02-18T18:38:37.473Z,101920
2018-02-18T18:41:03.606Z,101912
2018-02-18T18:43:29.753Z,101903
2018-02-18T18:45:55.913Z,101911
2018-02-18T18:48:22.054Z,101913
2018-02-18T18:50:48.334Z,101904
2018-02-18T18:53:14.486Z,101900
2018-02-18T18:55:40.630Z,101912
2018-02-18T18:58:06.773Z,101908
2018-02-18T19:00:32.928Z,101900
2018-02-18T19:02:59.130Z,101908
2018-02-18T19:05:25.272Z,101901
2018-02-18T19:07:51.446Z,101909
2018-02-18T19:10:18.337Z,101905
2018-02-18T19:12:44.469Z,101906
2018-02-18T19:15:10.593Z,101907
2018-02-18T19:17:36.745Z,101894
2018-02-18T19:20:02.905Z,101887
2018-02-18T19:22:29.285Z,101889
2018-02-18T19:24:55.426Z,101893
2018-02-18T19:27:21.649Z,101887
2018-02-18T19:29:47.785Z,101892
2018-02-18T19:32:13.937Z,101884
2018-02-18T19:34:40.825Z,101881
2018-02-18T19:37:06.969Z,101874
2018-02-18T19:39:33.105Z,101871
2018-02-18T19:41:59.303Z,101870
2018-02-18T19:44:25.461Z,101870
2018-02-18T19:46:51.605Z,101863
2018-02-18T19:49:18.489Z,101864
2018-02-18T19:51:44.629Z,101861
2018-02-18T19:54:10.797Z,101861
2018-02-18T19:56:37.186Z,101863
2018-02-18T19:59:03.358Z,101865
2018-02-18T20:01:29.520Z,101860
2018-02-18T20:03:55.655Z,101864
2018-02-18T20:06:21.831Z,101869
2018-02-18T20:08:47.977Z,101871
2018-02-18T20:11:14.881Z,101870
2018-02-18T20:13:41.024Z,101859
2018-02-18T20:16:07.177Z,101864
2018-02-18T20:18:33.329Z,101869
2018-02-18T20:20:59.472Z,101859
2018-02-18T20:23:25.621Z,101870
2018-02-18T20:25:51.925Z,101855
2018-02-18T20:28:18.065Z,101854
2018-02-18T20:30:44.253Z,101848
2018-02-18T20:33:10.390Z,101851
2018-02-18T20:35:36.538Z,101852
2018-02-18T20:38:02.733Z,101854
2018-02-18T20:40:28.914Z,101856
2018-02-18T20:42:55.069Z,101847
2018-02-18T20:45:21.950Z,101851
2018-02-18T20:47:48.121Z,101844
2018-02-18T20:50:14.287Z,101843
2018-02-18T20:52:40.438Z,101841
2018-02-18T20:55:06.781Z,101826
2018-02-18T20:57:32.927Z,101836
2018-02-18T20:59:59.077Z,101824
2018-02-18T21:02:25.265Z,101836
2018-02-18T21:04:51.422Z,101837
2018-02-18T21:07:17.573Z,101830
2018-02-18T21:09:43.705Z,101836
2018-02-18T21:12:09.837Z,101832
2018-02-18T21:14:35.953Z,101834
2018-02-18T21:17:02.099Z,101826
2018-02-18T21:19:28.277Z,101833
2018-02-18T21:21:54.413Z,101831
2018-02-18T21:24:21.295Z,101836
2018-02-18T21:26:47.649Z,101834
2018-02-18T21:29:13.777Z,101823
2018-02-18T21:31:39.914Z,101824
2018-02-18T21:34:06.045Z,101819
2018-02-18T21:36:32.217Z,101810
2018-02-18T21:38:58.358Z,101813
2018-02-18T21:41:24.486Z,101812
2018-02-18T21:43:50.617Z,101811
2018-02-18T21:46:16.753Z,101807
2018-02-18T21:48:42.909Z,101818
2018-02-18T21:51:09.055Z,101816
2018-02-18T21:53:35.442Z,101810
2018-02-18T21:56:01.585Z,101799
2018-02-18T21:58:27.721Z,101809
2018-02-18T22:00:53.887Z,101803
2018-02-18T22:03:20.036Z,101811
2018-02-18T22:05:46.182Z,101807
2018-02-18T22:08:12.333Z,101808
2018-02-18T22:10:38.475Z,101803
2018-02-18T22:13:05.365Z,101813
2018-02-18T22:15:31.535Z,101811
2018-02-18T22:17:58.429Z,101806
2018-02-18T22:20:24.583Z,101815
2018-02-18T22:22:50.720Z,101801
2018-02-18T22:25:16.874Z,101805
2018-02-18T22:27:43.665Z,101810
2018-02-18T22:30:09.809Z,101810
2018-02-18T22:32:35.957Z,101805
2018-02-18T22:35:02.891Z,101798
2018-02-18T22:37:29.042Z,101790
2018-02-18T22:39:55.970Z,101797
2018-02-18T22:42:22.857Z,101799
2018-02-18T22:44:49.026Z,101789
2018-02-18T22:47:15.194Z,101780
2018-02-18T22:49:41.326Z,101780
2018-02-18T22:52:07.485Z,101776
2018-02-18T22:54:33.620Z,101775
2018-02-18T22:56:59.757Z,101781
2018-02-18T22:59:25.923Z,101777
2018-02-18T23:01:52.088Z,101780
2018-02-18T23:04:18.238Z,101775
2018-02-18T23:06:44.401Z,101770
2018-02-18T23:09:10.550Z,101765
2018-02-18T23:11:36.693Z,101766
2018-02-18T23:14:02.861Z,101772
2018-02-18T23:16:28.992Z,101773
2018-02-18T23:18:55.170Z,101771
2018-02-18T23:21:21.311Z,101775
2018-02-18T23:23:47.445Z,101770
2018-02-18T23:26:13.865Z,101767
2018-02-18T23:28:40.005Z,101754
2018-02-18T23:31:06.165Z,101758
2018-02-18T23:33:32.365Z,101755
2018-02-18T23:35:58.497Z,101755
2018-02-18T23:38:24.629Z,101749
2018-02-18T23:40:50.777Z,101745
2018-02-18T23:43:16.939Z,101749
2018-02-18T23:45:43.081Z,101742
2018-02-18T23:48:09.224Z,101748
2018-02-18T23:50:35.729Z,101740
2018-02-18T23:53:01.876Z,101737
2018-02-18T23:55:28.015Z,101734
2018-02-18T23:57:54.169Z,101730
